createdAt,value
2023-02-15T00:00:02.825Z,40.79
2023-02-15T00:00:37.699Z,40.85
2023-02-15T00:01:11.156Z,40.98
2023-02-15T00:01:46.775Z,40.88
2023-02-15T00:02:20.896Z,40.96
2023-02-15T00:02:56.054Z,41.08
2023-02-15T00:03:28.339Z,40.80
2023-02-15T00:04:00.973Z,40.76
2023-02-15T00:04:49.614Z,41.05
2023-02-15T00:05:24.516Z,41.12
2023-02-15T00:05:58.266Z,41.03
2023-02-15T00:06:30.769Z,41.14
2023-02-15T00:07:05.640Z,40.82
2023-02-15T00:07:37.977Z,41.18
2023-02-15T00:08:12.811Z,41.00
2023-02-15T00:08:45.083Z,41.08
2023-02-15T00:09:17.619Z,41.13
2023-02-15T00:09:52.962Z,40.81
2023-02-15T00:10:25.194Z,41.20
2023-02-15T00:11:05.915Z,40.76
2023-02-15T00:11:45.045Z,41.24
2023-02-15T00:12:17.859Z,40.93
2023-02-15T00:12:52.719Z,41.22
2023-02-15T00:13:27.608Z,40.93
2023-02-15T00:13:59.839Z,41.00
2023-02-15T00:14:32.072Z,41.25
2023-02-15T00:15:07.579Z,41.17
2023-02-15T00:15:39.800Z,41.25
2023-02-15T00:16:13.497Z,41.32
2023-02-15T00:16:48.703Z,40.91
2023-02-15T00:17:21.646Z,40.86
2023-02-15T00:17:56.533Z,41.17
2023-02-15T00:18:28.764Z,41.17
2023-02-15T00:19:02.848Z,41.34
2023-02-15T00:19:37.688Z,41.29
2023-02-15T00:20:10.833Z,41.13
2023-02-15T00:20:43.062Z,41.36
2023-02-15T00:21:17.916Z,41.14
2023-02-15T00:21:50.279Z,40.89
2023-02-15T00:22:22.514Z,41.36
2023-02-15T00:22:57.344Z,41.08
2023-02-15T00:23:29.656Z,41.25
2023-02-15T00:24:03.152Z,41.28
2023-02-15T00:24:38.216Z,41.35
2023-02-15T00:25:10.497Z,41.20
2023-02-15T00:25:42.743Z,41.19
2023-02-15T00:26:17.687Z,41.34
2023-02-15T00:26:50.480Z,41.02
2023-02-15T00:27:23.288Z,41.08
2023-02-15T00:28:01.072Z,41.27
2023-02-15T00:28:33.380Z,41.35
2023-02-15T00:29:05.731Z,41.20
2023-02-15T00:29:40.661Z,41.29
2023-02-15T00:30:13.910Z,40.98
2023-02-15T00:30:46.197Z,41.26
2023-02-15T00:31:21.332Z,41.39
2023-02-15T00:31:54.358Z,40.92
2023-02-15T00:32:32.530Z,41.45
2023-02-15T00:33:04.793Z,41.37
2023-02-15T00:33:39.932Z,41.27
2023-02-15T00:34:14.356Z,41.17
2023-02-15T00:34:49.700Z,41.38
2023-02-15T00:35:22.325Z,41.09
2023-02-15T00:35:57.491Z,41.22
2023-02-15T00:36:32.369Z,40.95
2023-02-15T00:37:04.612Z,41.08
2023-02-15T00:37:36.894Z,41.39
2023-02-15T00:38:11.956Z,41.16
2023-02-15T00:38:44.688Z,41.22
2023-02-15T00:39:17.701Z,41.22
2023-02-15T00:39:52.539Z,41.00
2023-02-15T00:40:24.808Z,41.29
2023-02-15T00:40:57.978Z,41.05
2023-02-15T00:41:32.801Z,41.22
2023-02-15T00:42:05.182Z,40.98
2023-02-15T00:42:37.428Z,41.00
2023-02-15T00:43:14.956Z,41.22
2023-02-15T00:43:48.519Z,41.46
2023-02-15T00:44:20.754Z,41.42
2023-02-15T00:44:55.632Z,41.53
2023-02-15T00:45:27.888Z,41.36
2023-02-15T00:46:00.967Z,41.17
2023-02-15T00:46:36.305Z,41.34
2023-02-15T00:47:08.544Z,41.29
2023-02-15T00:47:40.779Z,41.08
2023-02-15T00:48:15.679Z,41.17
2023-02-15T00:48:48.135Z,41.35
2023-02-15T00:49:23.029Z,41.25
2023-02-15T00:49:55.264Z,41.09
2023-02-15T00:50:27.493Z,41.05
2023-02-15T00:51:00.894Z,41.51
2023-02-15T00:51:35.939Z,41.39
2023-02-15T00:52:08.200Z,41.45
2023-02-15T00:52:41.597Z,41.15
2023-02-15T00:53:16.704Z,40.96
2023-02-15T00:53:48.975Z,41.49
2023-02-15T00:54:21.419Z,41.09
2023-02-15T00:54:53.669Z,41.16
2023-02-15T00:55:28.502Z,41.19
2023-02-15T00:56:02.807Z,41.12
2023-02-15T00:56:35.331Z,41.03
2023-02-15T00:57:10.174Z,41.17
2023-02-15T00:57:42.448Z,41.27
2023-02-15T00:58:17.580Z,41.25
2023-02-15T00:58:53.240Z,41.15
2023-02-15T00:59:25.524Z,41.29
2023-02-15T00:59:57.770Z,41.29
2023-02-15T01:00:32.671Z,41.41
2023-02-15T01:01:06.549Z,41.51
2023-02-15T01:01:41.418Z,41.16
2023-02-15T01:02:13.672Z,41.15
2023-02-15T01:02:45.901Z,41.08
2023-02-15T01:03:22.686Z,41.27
2023-02-15T01:03:54.960Z,40.98
2023-02-15T01:04:29.823Z,41.42
2023-02-15T01:05:03.373Z,41.30
2023-02-15T01:05:35.723Z,41.29
2023-02-15T01:06:12.781Z,41.11
2023-02-15T01:06:45.027Z,41.01
2023-02-15T01:07:20.040Z,41.03
2023-02-15T01:07:54.415Z,41.47
2023-02-15T01:08:26.885Z,41.09
2023-02-15T01:09:01.771Z,41.43
2023-02-15T01:09:35.044Z,41.25
2023-02-15T01:10:09.692Z,41.05
2023-02-15T01:10:45.110Z,41.44
2023-02-15T01:11:23.383Z,41.27
2023-02-15T01:11:56.506Z,41.12
2023-02-15T01:12:31.335Z,41.20
2023-02-15T01:13:03.911Z,41.27
2023-02-15T01:13:39.219Z,41.40
2023-02-15T01:14:14.362Z,41.05
2023-02-15T01:14:47.603Z,41.41
2023-02-15T01:15:20.126Z,41.39
2023-02-15T01:15:58.330Z,41.39
2023-02-15T01:16:31.702Z,41.05
2023-02-15T01:17:04.932Z,41.36
2023-02-15T01:17:45.100Z,41.10
2023-02-15T01:18:17.941Z,41.37
2023-02-15T01:18:50.336Z,41.37
2023-02-15T01:19:25.197Z,41.31
2023-02-15T01:19:57.457Z,41.43
2023-02-15T01:20:30.702Z,41.48
2023-02-15T01:21:10.978Z,41.32
2023-02-15T01:21:45.835Z,41.47
2023-02-15T01:22:18.222Z,41.16
2023-02-15T01:22:50.980Z,41.20
2023-02-15T01:23:23.311Z,41.25
2023-02-15T01:23:58.177Z,41.46
2023-02-15T01:24:30.425Z,41.51
2023-02-15T01:25:02.739Z,41.61
2023-02-15T01:25:38.996Z,41.20
2023-02-15T01:26:11.641Z,41.56
2023-02-15T01:26:43.897Z,41.58
2023-02-15T01:27:18.725Z,41.44
2023-02-15T01:27:50.960Z,41.14
2023-02-15T01:28:23.190Z,41.45
2023-02-15T01:29:00.664Z,41.58
2023-02-15T01:29:33.272Z,41.42
2023-02-15T01:30:06.748Z,41.34
2023-02-15T01:30:39.055Z,41.25
2023-02-15T01:31:15.798Z,41.39
2023-02-15T01:31:50.944Z,41.44
2023-02-15T01:32:23.387Z,41.56
2023-02-15T01:32:55.638Z,41.14
2023-02-15T01:33:30.463Z,41.30
2023-02-15T01:34:02.724Z,41.51
2023-02-15T01:34:35.070Z,41.61
2023-02-15T01:35:10.829Z,41.45
2023-02-15T01:35:43.134Z,41.24
2023-02-15T01:36:18.387Z,41.32
2023-02-15T01:36:53.270Z,41.48
2023-02-15T01:37:25.673Z,41.29
2023-02-15T01:37:58.180Z,41.30
2023-02-15T01:38:33.045Z,41.42
2023-02-15T01:39:05.329Z,41.55
2023-02-15T01:39:40.217Z,41.47
2023-02-15T01:40:15.425Z,41.47
2023-02-15T01:40:52.160Z,41.61
2023-02-15T01:41:24.626Z,41.48
2023-02-15T01:41:59.532Z,41.42
2023-02-15T01:42:32.417Z,41.63
2023-02-15T01:43:04.685Z,41.41
2023-02-15T01:43:44.702Z,41.44
2023-02-15T01:44:50.421Z,41.62
2023-02-15T01:45:27.833Z,41.59
2023-02-15T01:46:00.560Z,41.13
2023-02-15T01:46:36.222Z,41.11
2023-02-15T01:47:13.083Z,41.46
2023-02-15T01:47:47.213Z,41.63
2023-02-15T01:48:22.581Z,41.62
2023-02-15T01:49:02.385Z,41.29
2023-02-15T01:49:34.868Z,41.58
2023-02-15T01:50:11.529Z,41.63
2023-02-15T01:50:48.822Z,41.61
2023-02-15T01:51:24.706Z,41.15
2023-02-15T01:51:57.046Z,41.48
2023-02-15T01:52:33.920Z,41.41
2023-02-15T01:53:12.249Z,41.43
2023-02-15T01:53:47.488Z,41.17
2023-02-15T01:54:28.741Z,41.60
2023-02-15T01:55:03.478Z,41.50
2023-02-15T01:55:38.469Z,41.42
2023-02-15T01:56:15.472Z,41.56
2023-02-15T01:56:48.535Z,41.27
2023-02-15T01:57:28.044Z,41.41
2023-02-15T01:58:00.462Z,41.34
2023-02-15T01:58:34.232Z,41.37
2023-02-15T01:59:11.744Z,41.51
2023-02-15T01:59:47.449Z,41.08
2023-02-15T02:00:23.110Z,41.41
2023-02-15T02:01:00.303Z,41.26
2023-02-15T02:01:33.602Z,41.16
2023-02-15T02:02:07.115Z,41.27
2023-02-15T02:02:42.035Z,41.54
2023-02-15T02:03:14.540Z,41.39
2023-02-15T02:03:53.283Z,41.38
2023-02-15T02:04:32.493Z,41.28
2023-02-15T02:05:07.600Z,41.07
2023-02-15T02:05:40.593Z,41.25
2023-02-15T02:06:15.543Z,41.29
2023-02-15T02:06:48.743Z,41.12
2023-02-15T02:07:22.308Z,41.50
2023-02-15T02:08:00.115Z,41.15
2023-02-15T02:08:32.733Z,41.41
2023-02-15T02:09:05.324Z,41.34
2023-02-15T02:09:37.884Z,41.21
2023-02-15T02:10:15.154Z,41.14
2023-02-15T02:10:47.388Z,41.22
2023-02-15T02:11:21.237Z,41.53
2023-02-15T02:11:55.204Z,41.44
2023-02-15T02:12:30.334Z,41.42
2023-02-15T02:13:05.265Z,41.51
2023-02-15T02:13:37.540Z,41.51
2023-02-15T02:14:12.428Z,41.48
2023-02-15T02:14:46.236Z,41.13
2023-02-15T02:15:21.575Z,41.01
2023-02-15T02:16:02.541Z,41.30
2023-02-15T02:16:41.625Z,41.24
2023-02-15T02:17:19.028Z,41.39
2023-02-15T02:18:02.832Z,41.18
2023-02-15T02:18:43.844Z,41.25
2023-02-15T02:19:52.896Z,41.09
2023-02-15T02:20:36.761Z,41.21
2023-02-15T02:21:36.945Z,41.07
2023-02-15T02:22:45.275Z,41.12
2023-02-15T02:23:51.474Z,41.05
2023-02-15T02:24:55.505Z,41.11
2023-02-15T02:26:00.032Z,41.37
2023-02-15T02:27:10.435Z,41.46
2023-02-15T02:27:45.640Z,41.47
2023-02-15T02:28:37.158Z,41.02
2023-02-15T02:29:55.783Z,41.13
2023-02-15T02:31:04.173Z,41.23
2023-02-15T02:31:45.707Z,41.34
2023-02-15T02:32:39.089Z,41.34
2023-02-15T02:33:35.478Z,41.24
2023-02-15T02:34:09.956Z,41.27
2023-02-15T02:34:47.375Z,41.13
2023-02-15T02:35:27.324Z,41.34
2023-02-15T02:36:06.768Z,41.05
2023-02-15T02:36:42.728Z,41.06
2023-02-15T02:37:23.832Z,41.32
2023-02-15T02:38:03.427Z,41.47
2023-02-15T02:38:44.156Z,41.37
2023-02-15T02:39:28.112Z,41.44
2023-02-15T02:40:05.615Z,41.09
2023-02-15T02:40:45.747Z,41.16
2023-02-15T02:41:27.001Z,41.35
2023-02-15T02:42:04.751Z,41.09
2023-02-15T02:42:39.285Z,41.08
2023-02-15T02:43:17.114Z,41.28
2023-02-15T02:43:52.954Z,41.15
2023-02-15T02:44:28.479Z,41.08
2023-02-15T02:45:07.023Z,41.20
2023-02-15T02:45:42.924Z,41.37
2023-02-15T02:46:21.617Z,41.14
2023-02-15T02:46:57.790Z,41.03
2023-02-15T02:47:34.988Z,41.50
2023-02-15T02:48:10.931Z,41.31
2023-02-15T02:48:48.406Z,41.20
2023-02-15T02:49:32.936Z,41.06
2023-02-15T02:50:07.779Z,41.17
2023-02-15T02:50:43.841Z,41.54
2023-02-15T02:51:22.362Z,41.24
2023-02-15T02:51:59.854Z,41.18
2023-02-15T02:52:43.540Z,41.08
2023-02-15T02:53:15.819Z,41.13
2023-02-15T02:53:52.436Z,41.16
2023-02-15T02:54:27.253Z,41.49
2023-02-15T02:55:00.150Z,41.46
2023-02-15T02:55:35.774Z,41.30
2023-02-15T02:56:15.769Z,41.19
2023-02-15T02:56:49.085Z,41.51
2023-02-15T02:57:23.825Z,41.17
2023-02-15T02:58:02.329Z,41.18
2023-02-15T02:58:39.616Z,41.51
2023-02-15T02:59:14.316Z,41.27
2023-02-15T02:59:50.908Z,41.41
2023-02-15T03:00:25.380Z,41.51
2023-02-15T03:00:59.225Z,41.46
2023-02-15T03:01:40.789Z,41.17
2023-02-15T03:02:17.621Z,41.32
2023-02-15T03:02:52.654Z,41.10
2023-02-15T03:03:32.490Z,41.49
2023-02-15T03:04:09.929Z,41.10
2023-02-15T03:04:47.043Z,41.09
2023-02-15T03:05:26.275Z,41.29
2023-02-15T03:06:01.943Z,41.16
2023-02-15T03:06:38.249Z,41.48
2023-02-15T03:07:16.544Z,41.34
2023-02-15T03:07:51.458Z,41.45
2023-02-15T03:08:25.453Z,41.08
2023-02-15T03:09:06.463Z,41.32
2023-02-15T03:09:42.926Z,41.51
2023-02-15T03:10:18.325Z,41.34
2023-02-15T03:10:56.579Z,41.48
2023-02-15T03:11:29.332Z,41.20
2023-02-15T03:12:02.597Z,41.43
2023-02-15T03:12:39.337Z,41.10
2023-02-15T03:13:11.719Z,41.05
2023-02-15T03:13:47.631Z,41.37
2023-02-15T03:14:20.535Z,41.45
2023-02-15T03:14:54.754Z,41.04
2023-02-15T03:15:52.513Z,41.32
2023-02-15T03:16:28.681Z,41.00
2023-02-15T03:17:01.898Z,41.49
2023-02-15T03:17:35.881Z,41.02
2023-02-15T03:18:08.215Z,41.07
2023-02-15T03:18:53.767Z,41.37
2023-02-15T03:19:31.817Z,41.31
2023-02-15T03:20:12.186Z,41.29
2023-02-15T03:20:45.504Z,41.42
2023-02-15T03:21:23.277Z,41.13
2023-02-15T03:22:04.676Z,41.15
2023-02-15T03:22:40.796Z,41.41
2023-02-15T03:23:19.574Z,41.01
2023-02-15T03:23:57.191Z,41.00
2023-02-15T03:24:31.571Z,41.14
2023-02-15T03:25:09.143Z,41.37
2023-02-15T03:25:43.590Z,41.05
2023-02-15T03:26:17.192Z,41.37
2023-02-15T03:26:54.785Z,40.98
2023-02-15T03:27:30.002Z,41.22
2023-02-15T03:28:06.741Z,41.22
2023-02-15T03:28:46.287Z,41.39
2023-02-15T03:29:19.727Z,41.34
2023-02-15T03:29:55.404Z,41.27
2023-02-15T03:30:32.469Z,41.31
2023-02-15T03:31:07.430Z,41.07
2023-02-15T03:31:42.210Z,41.36
2023-02-15T03:32:19.103Z,40.93
2023-02-15T03:32:52.220Z,41.03
2023-02-15T03:33:25.464Z,41.08
2023-02-15T03:34:03.484Z,40.98
2023-02-15T03:34:38.459Z,40.93
2023-02-15T03:35:10.774Z,40.93
2023-02-15T03:35:50.452Z,40.99
2023-02-15T03:36:26.028Z,40.96
2023-02-15T03:37:01.769Z,40.93
2023-02-15T03:37:38.716Z,41.13
2023-02-15T03:38:12.439Z,41.07
2023-02-15T03:38:49.412Z,40.88
2023-02-15T03:39:26.680Z,40.94
2023-02-15T03:40:22.062Z,41.41
2023-02-15T03:41:10.298Z,41.22
2023-02-15T03:41:49.329Z,40.91
2023-02-15T03:42:29.588Z,41.23
2023-02-15T03:43:06.366Z,41.12
2023-02-15T03:43:44.215Z,41.10
2023-02-15T03:44:19.715Z,41.37
2023-02-15T03:44:58.765Z,41.33
2023-02-15T03:45:32.924Z,41.03
2023-02-15T03:46:08.129Z,40.95
2023-02-15T03:46:47.556Z,41.09
2023-02-15T03:47:22.387Z,41.03
2023-02-15T03:47:56.228Z,41.00
2023-02-15T03:48:33.794Z,41.45
2023-02-15T03:49:08.976Z,41.15
2023-02-15T03:49:46.024Z,41.39
2023-02-15T03:50:36.159Z,41.20
2023-02-15T03:51:26.917Z,41.27
2023-02-15T03:52:02.485Z,41.39
2023-02-15T03:52:35.688Z,41.22
2023-02-15T03:53:11.222Z,41.45
2023-02-15T03:53:43.809Z,41.09
2023-02-15T03:54:39.528Z,41.05
2023-02-15T03:55:11.803Z,41.51
2023-02-15T03:55:47.868Z,41.29
2023-02-15T03:56:20.114Z,41.03
2023-02-15T03:57:14.950Z,41.24
2023-02-15T03:58:02.317Z,41.33
2023-02-15T03:58:49.560Z,41.29
2023-02-15T03:59:36.795Z,41.38
2023-02-15T04:00:30.701Z,41.34
2023-02-15T04:01:22.124Z,41.51
2023-02-15T04:02:06.448Z,41.22
2023-02-15T04:02:41.816Z,41.46
2023-02-15T04:03:24.991Z,41.28
2023-02-15T04:04:03.305Z,41.29
2023-02-15T04:04:37.963Z,40.98
2023-02-15T04:05:12.845Z,41.17
2023-02-15T04:05:48.760Z,41.42
2023-02-15T04:06:20.998Z,41.42
2023-02-15T04:06:53.256Z,41.11
2023-02-15T04:07:28.117Z,41.37
2023-02-15T04:08:00.357Z,41.52
2023-02-15T04:08:47.365Z,41.29
2023-02-15T04:09:34.657Z,41.10
2023-02-15T04:10:22.780Z,41.33
2023-02-15T04:10:56.180Z,41.10
2023-02-15T04:11:32.501Z,41.39
2023-02-15T04:12:05.382Z,41.07
2023-02-15T04:12:37.611Z,41.14
2023-02-15T04:13:12.457Z,41.15
2023-02-15T04:13:44.780Z,41.19
2023-02-15T04:14:32.039Z,41.15
2023-02-15T04:15:19.754Z,41.39
2023-02-15T04:16:08.275Z,41.15
2023-02-15T04:16:46.712Z,41.10
2023-02-15T04:17:19.416Z,41.27
2023-02-15T04:17:51.671Z,41.47
2023-02-15T04:18:39.533Z,41.30
2023-02-15T04:19:26.788Z,41.30
2023-02-15T04:20:14.154Z,41.23
2023-02-15T04:21:04.032Z,41.39
2023-02-15T04:21:51.261Z,41.03
2023-02-15T04:22:38.469Z,41.17
2023-02-15T04:23:25.733Z,41.65
2023-02-15T04:24:12.952Z,41.33
2023-02-15T04:25:00.186Z,41.71
2023-02-15T04:25:35.073Z,41.68
2023-02-15T04:26:07.384Z,41.32
2023-02-15T04:26:39.619Z,41.61
2023-02-15T04:27:15.706Z,41.17
2023-02-15T04:27:50.032Z,41.32
2023-02-15T04:28:22.287Z,41.22
2023-02-15T04:28:57.310Z,41.20
2023-02-15T04:29:30.115Z,41.13
2023-02-15T04:30:02.441Z,41.21
2023-02-15T04:30:37.540Z,41.49
2023-02-15T04:31:09.833Z,41.51
2023-02-15T04:31:42.347Z,41.53
2023-02-15T04:32:17.281Z,41.13
2023-02-15T04:32:49.553Z,41.46
2023-02-15T04:33:21.818Z,41.06
2023-02-15T04:33:56.652Z,41.46
2023-02-15T04:34:28.922Z,41.16
2023-02-15T04:35:01.306Z,41.11
2023-02-15T04:35:36.447Z,41.11
2023-02-15T04:36:11.327Z,41.03
2023-02-15T04:36:43.923Z,41.46
2023-02-15T04:37:18.816Z,41.02
2023-02-15T04:37:51.863Z,41.00
2023-02-15T04:38:24.160Z,41.35
2023-02-15T04:38:59.001Z,41.44
2023-02-15T04:39:31.243Z,41.47
2023-02-15T04:40:04.325Z,40.97
2023-02-15T04:40:39.216Z,41.40
2023-02-15T04:41:13.389Z,41.54
2023-02-15T04:41:45.685Z,41.30
2023-02-15T04:42:18.201Z,41.49
2023-02-15T04:42:53.037Z,41.45
2023-02-15T04:43:25.334Z,41.49
2023-02-15T04:43:58.404Z,41.39
2023-02-15T04:44:33.229Z,41.37
2023-02-15T04:45:06.496Z,41.56
2023-02-15T04:45:38.792Z,41.51
2023-02-15T04:46:13.751Z,41.42
2023-02-15T04:46:45.994Z,41.05
2023-02-15T04:47:18.250Z,41.04
2023-02-15T04:47:53.311Z,40.94
2023-02-15T04:48:25.631Z,41.27
2023-02-15T04:48:58.103Z,41.16
2023-02-15T04:49:32.928Z,41.24
2023-02-15T04:50:06.680Z,41.13
2023-02-15T04:50:41.593Z,41.15
2023-02-15T04:51:16.415Z,40.82
2023-02-15T04:51:48.673Z,41.18
2023-02-15T04:52:23.501Z,41.02
2023-02-15T04:52:55.792Z,40.86
2023-02-15T04:53:28.032Z,41.08
2023-02-15T04:54:02.875Z,41.22
2023-02-15T04:54:35.199Z,40.97
2023-02-15T04:55:08.511Z,41.03
2023-02-15T04:55:43.377Z,41.06
2023-02-15T04:56:15.667Z,41.48
2023-02-15T04:56:47.960Z,41.33
2023-02-15T04:57:22.779Z,41.54
2023-02-15T04:57:54.999Z,41.20
2023-02-15T04:58:27.229Z,41.41
2023-02-15T04:59:02.076Z,41.40
2023-02-15T04:59:34.319Z,41.39
2023-02-15T05:00:09.616Z,41.52
2023-02-15T05:00:44.565Z,41.29
2023-02-15T05:01:17.112Z,41.65
2023-02-15T05:01:49.428Z,41.68
2023-02-15T05:02:24.301Z,41.61
2023-02-15T05:02:56.568Z,41.65
2023-02-15T05:03:29.237Z,41.53
2023-02-15T05:04:04.142Z,41.33
2023-02-15T05:04:36.430Z,41.82
2023-02-15T05:05:14.056Z,41.92
2023-02-15T05:05:48.946Z,41.66
2023-02-15T05:06:23.959Z,41.29
2023-02-15T05:06:58.856Z,41.46
2023-02-15T05:07:31.125Z,41.25
2023-02-15T05:08:03.400Z,41.51
2023-02-15T05:08:38.233Z,41.55
2023-02-15T05:09:11.320Z,41.21
2023-02-15T05:09:43.565Z,41.29
2023-02-15T05:10:18.871Z,41.20
2023-02-15T05:10:51.108Z,41.16
2023-02-15T05:11:23.335Z,41.41
2023-02-15T05:11:58.162Z,41.42
2023-02-15T05:12:30.412Z,41.33
2023-02-15T05:13:02.718Z,40.99
2023-02-15T05:13:37.585Z,41.10
2023-02-15T05:14:10.068Z,40.98
2023-02-15T05:14:42.289Z,41.18
2023-02-15T05:15:17.136Z,40.73
2023-02-15T05:15:50.036Z,41.03
2023-02-15T05:16:22.348Z,40.74
2023-02-15T05:16:59.631Z,40.92
2023-02-15T05:17:31.877Z,40.93
2023-02-15T05:18:04.404Z,40.62
2023-02-15T05:18:39.259Z,40.81
2023-02-15T05:19:11.506Z,40.83
2023-02-15T05:19:43.733Z,40.82
2023-02-15T05:20:19.662Z,40.87
2023-02-15T05:20:51.886Z,40.68
2023-02-15T05:21:26.896Z,40.72
2023-02-15T05:22:01.895Z,40.80
2023-02-15T05:22:34.200Z,40.52
2023-02-15T05:23:06.444Z,40.91
2023-02-15T05:23:41.316Z,40.87
2023-02-15T05:24:28.548Z,40.48
2023-02-15T05:25:15.779Z,40.54
2023-02-15T05:26:04.108Z,40.76
2023-02-15T05:26:51.364Z,40.75
2023-02-15T05:27:38.578Z,40.85
2023-02-15T05:28:23.400Z,40.50
2023-02-15T05:28:58.271Z,40.83
2023-02-15T05:29:30.500Z,40.83
2023-02-15T05:30:03.155Z,40.79
2023-02-15T05:30:38.248Z,40.81
2023-02-15T05:31:13.090Z,40.59
2023-02-15T05:31:48.532Z,40.67
2023-02-15T05:32:23.594Z,40.41
2023-02-15T05:32:55.924Z,40.65
2023-02-15T05:33:30.828Z,40.80
2023-02-15T05:34:03.172Z,40.45
2023-02-15T05:34:35.437Z,40.41
2023-02-15T05:35:11.040Z,40.13
2023-02-15T05:35:43.275Z,39.96
2023-02-15T05:36:15.563Z,40.30
2023-02-15T05:36:53.004Z,40.24
2023-02-15T05:37:25.232Z,40.30
2023-02-15T05:37:57.448Z,40.01
2023-02-15T05:38:32.796Z,40.08
2023-02-15T05:39:06.995Z,40.13
2023-02-15T05:39:39.280Z,40.19
2023-02-15T05:40:15.221Z,40.04
2023-02-15T05:40:49.863Z,40.06
2023-02-15T05:41:22.706Z,40.23
2023-02-15T05:41:57.537Z,40.26
2023-02-15T05:42:29.773Z,40.14
2023-02-15T05:43:02.268Z,40.04
2023-02-15T05:43:37.555Z,40.08
2023-02-15T05:44:09.803Z,40.13
2023-02-15T05:44:42.041Z,39.99
2023-02-15T05:45:18.772Z,39.76
2023-02-15T05:45:52.424Z,39.85
2023-02-15T05:46:24.873Z,39.82
2023-02-15T05:47:00.759Z,40.15
2023-02-15T05:47:33.012Z,39.72
2023-02-15T05:48:05.437Z,39.83
2023-02-15T05:48:40.309Z,40.14
2023-02-15T05:49:12.535Z,39.81
2023-02-15T05:49:45.751Z,40.14
2023-02-15T05:50:20.949Z,40.01
2023-02-15T05:50:59.094Z,40.13
2023-02-15T05:51:31.312Z,39.83
2023-02-15T05:52:09.340Z,40.01
2023-02-15T05:52:41.601Z,39.74
2023-02-15T05:53:16.461Z,39.83
2023-02-15T05:53:48.764Z,40.11
2023-02-15T05:54:21.041Z,40.06
2023-02-15T05:54:55.864Z,40.08
2023-02-15T05:55:28.113Z,39.85
2023-02-15T05:56:01.616Z,39.77
2023-02-15T05:56:36.818Z,39.88
2023-02-15T05:57:09.092Z,39.72
2023-02-15T05:57:41.316Z,39.70
2023-02-15T05:58:16.179Z,39.66
2023-02-15T05:58:48.437Z,39.90
2023-02-15T05:59:20.732Z,39.69
2023-02-15T05:59:55.551Z,39.63
2023-02-15T06:00:27.786Z,39.82
2023-02-15T06:01:00.046Z,39.88
2023-02-15T06:01:34.878Z,39.75
2023-02-15T06:02:07.807Z,39.99
2023-02-15T06:02:40.351Z,39.99
2023-02-15T06:03:15.364Z,39.90
2023-02-15T06:03:47.724Z,40.04
2023-02-15T06:04:20.312Z,40.18
2023-02-15T06:04:55.163Z,40.21
2023-02-15T06:05:27.522Z,39.87
2023-02-15T06:06:03.267Z,40.26
2023-02-15T06:06:35.729Z,40.20
2023-02-15T06:07:13.382Z,40.13
2023-02-15T06:07:45.921Z,40.25
2023-02-15T06:08:18.258Z,39.96
2023-02-15T06:08:53.122Z,40.09
2023-02-15T06:09:25.382Z,39.83
2023-02-15T06:09:57.626Z,39.96
2023-02-15T06:10:32.493Z,39.89
2023-02-15T06:11:05.215Z,39.87
2023-02-15T06:11:37.431Z,40.17
2023-02-15T06:12:12.256Z,40.18
2023-02-15T06:12:45.334Z,40.06
2023-02-15T06:13:17.610Z,40.28
2023-02-15T06:13:52.473Z,40.16
2023-02-15T06:14:24.752Z,40.26
2023-02-15T06:14:57.050Z,40.04
2023-02-15T06:15:32.200Z,40.26
2023-02-15T06:16:05.479Z,40.16
2023-02-15T06:16:38.022Z,40.07
2023-02-15T06:17:12.851Z,40.17
2023-02-15T06:17:45.147Z,40.23
2023-02-15T06:18:20.085Z,39.91
2023-02-15T06:18:53.753Z,40.05
2023-02-15T06:19:29.063Z,40.18
2023-02-15T06:20:01.328Z,39.77
2023-02-15T06:20:33.585Z,40.01
2023-02-15T06:21:08.512Z,40.06
2023-02-15T06:21:40.731Z,39.83
2023-02-15T06:22:15.580Z,39.75
2023-02-15T06:22:50.425Z,39.89
2023-02-15T06:23:22.672Z,39.95
2023-02-15T06:23:54.916Z,39.79
2023-02-15T06:24:29.882Z,39.94
2023-02-15T06:25:03.194Z,39.96
2023-02-15T06:25:36.629Z,39.86
2023-02-15T06:26:12.400Z,40.04
2023-02-15T06:26:44.626Z,39.96
2023-02-15T06:27:16.967Z,40.25
2023-02-15T06:27:51.798Z,40.15
2023-02-15T06:28:24.119Z,40.12
2023-02-15T06:28:56.336Z,39.87
2023-02-15T06:29:31.183Z,40.13
2023-02-15T06:30:04.848Z,39.82
2023-02-15T06:30:37.091Z,40.28
2023-02-15T06:31:11.995Z,40.23
2023-02-15T06:31:44.359Z,39.89
2023-02-15T06:32:16.699Z,40.06
2023-02-15T06:32:51.680Z,40.04
2023-02-15T06:33:24.417Z,40.16
2023-02-15T06:34:01.961Z,40.02
2023-02-15T06:34:36.920Z,39.97
2023-02-15T06:35:09.371Z,40.31
2023-02-15T06:35:43.366Z,40.42
2023-02-15T06:36:18.205Z,40.28
2023-02-15T06:36:50.446Z,40.11
2023-02-15T06:37:27.869Z,40.45
2023-02-15T06:38:00.184Z,40.09
2023-02-15T06:38:33.059Z,40.28
2023-02-15T06:39:08.440Z,40.08
2023-02-15T06:39:40.730Z,40.21
2023-02-15T06:40:16.272Z,40.23
2023-02-15T06:40:48.564Z,40.43
2023-02-15T06:41:20.780Z,40.35
2023-02-15T06:41:55.673Z,40.34
2023-02-15T06:42:27.912Z,40.34
2023-02-15T06:43:02.764Z,40.30
2023-02-15T06:43:35.372Z,40.10
2023-02-15T06:44:10.293Z,39.92
2023-02-15T06:44:42.516Z,40.37
2023-02-15T06:45:14.850Z,40.36
2023-02-15T06:45:49.747Z,39.87
2023-02-15T06:46:22.119Z,40.00
2023-02-15T06:46:54.426Z,40.33
2023-02-15T06:47:29.351Z,39.96
2023-02-15T06:48:01.597Z,40.17
2023-02-15T06:48:33.872Z,40.04
2023-02-15T06:49:08.776Z,40.18
2023-02-15T06:49:41.121Z,39.96
2023-02-15T06:50:13.440Z,40.35
2023-02-15T06:50:48.287Z,40.18
2023-02-15T06:51:20.568Z,40.17
2023-02-15T06:51:55.396Z,39.98
2023-02-15T06:52:30.738Z,40.09
2023-02-15T06:53:05.567Z,39.90
2023-02-15T06:53:37.811Z,40.22
2023-02-15T06:54:10.046Z,40.30
2023-02-15T06:54:44.914Z,40.23
2023-02-15T06:55:17.353Z,40.50
2023-02-15T06:55:52.209Z,40.08
2023-02-15T06:56:24.471Z,40.13
2023-02-15T06:56:56.916Z,40.41
2023-02-15T06:57:31.883Z,39.96
2023-02-15T06:58:04.239Z,40.08
2023-02-15T06:58:36.580Z,40.35
2023-02-15T06:59:11.425Z,40.08
2023-02-15T06:59:43.716Z,40.12
2023-02-15T07:00:16.789Z,40.07
2023-02-15T07:00:51.620Z,39.89
2023-02-15T07:01:24.173Z,40.04
2023-02-15T07:01:56.527Z,39.89
2023-02-15T07:02:32.324Z,39.88
2023-02-15T07:03:04.604Z,39.84
2023-02-15T07:03:39.869Z,39.96
2023-02-15T07:04:12.184Z,40.37
2023-02-15T07:04:44.450Z,40.21
2023-02-15T07:05:19.468Z,40.17
2023-02-15T07:05:55.900Z,40.09
2023-02-15T07:06:30.753Z,39.81
2023-02-15T07:07:02.981Z,40.36
2023-02-15T07:07:40.635Z,40.33
2023-02-15T07:08:12.902Z,40.35
2023-02-15T07:08:45.293Z,40.16
2023-02-15T07:09:20.159Z,40.00
2023-02-15T07:09:52.495Z,40.16
2023-02-15T07:10:27.452Z,39.89
2023-02-15T07:11:20.087Z,39.94
2023-02-15T07:12:07.326Z,40.25
2023-02-15T07:12:42.679Z,39.92
2023-02-15T07:13:14.909Z,39.96
2023-02-15T07:13:50.330Z,40.01
2023-02-15T07:14:22.752Z,40.09
2023-02-15T07:14:59.272Z,40.17
2023-02-15T07:15:31.548Z,40.06
2023-02-15T07:16:04.279Z,39.82
2023-02-15T07:16:39.360Z,39.95
2023-02-15T07:17:27.423Z,39.87
2023-02-15T07:18:06.664Z,40.22
2023-02-15T07:18:39.191Z,39.80
2023-02-15T07:19:14.339Z,40.06
2023-02-15T07:19:46.603Z,40.24
2023-02-15T07:20:23.208Z,39.92
2023-02-15T07:20:55.432Z,39.86
2023-02-15T07:21:27.697Z,39.78
2023-02-15T07:22:03.124Z,39.82
2023-02-15T07:22:38.305Z,40.04
2023-02-15T07:23:10.572Z,39.94
2023-02-15T07:23:45.500Z,40.10
2023-02-15T07:24:17.962Z,40.09
2023-02-15T07:24:55.628Z,39.83
2023-02-15T07:25:28.061Z,39.80
2023-02-15T07:26:03.748Z,39.84
2023-02-15T07:26:36.255Z,40.14
2023-02-15T07:27:08.819Z,40.01
2023-02-15T07:27:44.807Z,40.25
2023-02-15T07:28:17.311Z,40.33
2023-02-15T07:28:49.549Z,40.00
2023-02-15T07:29:24.435Z,40.35
2023-02-15T07:29:56.696Z,40.31
2023-02-15T07:30:32.547Z,39.87
2023-02-15T07:31:05.503Z,39.82
2023-02-15T07:31:40.369Z,39.89
2023-02-15T07:32:12.651Z,39.94
2023-02-15T07:33:00.316Z,40.26
2023-02-15T07:33:35.577Z,39.96
2023-02-15T07:34:07.984Z,39.88
2023-02-15T07:34:41.624Z,39.98
2023-02-15T07:35:16.648Z,40.13
2023-02-15T07:35:49.839Z,40.09
2023-02-15T07:36:22.200Z,40.08
2023-02-15T07:36:57.113Z,39.87
2023-02-15T07:37:29.531Z,40.28
2023-02-15T07:38:07.034Z,40.19
2023-02-15T07:38:40.584Z,40.01
2023-02-15T07:39:15.456Z,40.03